Time;durP1;ratioP1;P1;durP2;ratioP2;P2;SDS_P1;SDS_P2;PMS_P1;PMS_P2;Temp;Humidity;BMP_temperature;BMP_pressure;BME280_temperature;BME280_humidity;BME280_pressure;Samples;Min_cycle;Max_cycle;Signal;HPM_P1;HPM_P2
2021/01/29 00:00:41;;;;;;;19.90;4.90;;;;;;;8.55;83.28;98730.09;5020076;28;20128;-50
2021/01/29 00:03:15;;;;;;;19.70;4.35;;;;;;;8.54;83.11;98718.28;5020111;28;20123;-48
2021/01/29 00:05:46;;;;;;;28.67;5.07;;;;;;;8.56;83.11;98715.13;5018253;28;20127;-50
2021/01/29 00:08:12;;;;;;;25.27;4.28;;;;;;;8.57;83.00;98716.72;5015665;28;20055;-49
2021/01/29 00:10:39;;;;;;;27.92;4.00;;;;;;;8.55;82.98;98714.34;5019772;28;20038;-49
2021/01/29 00:13:06;;;;;;;27.13;5.93;;;;;;;8.58;83.02;98713.56;5014719;28;20049;-54
2021/01/29 00:15:33;;;;;;;28.42;4.47;;;;;;;8.58;82.97;98716.34;5028201;28;20133;-48
2021/01/29 00:18:00;;;;;;;20.00;5.10;;;;;;;8.57;82.68;98716.72;5028599;28;20487;-53
2021/01/29 00:20:28;;;;;;;19.65;4.55;;;;;;;8.56;82.74;98717.88;5025407;28;20042;-52
2021/01/29 00:22:57;;;;;;;24.33;5.13;;;;;;;8.57;82.47;98714.75;5025553;28;20076;-50
2021/01/29 00:25:30;;;;;;;31.23;5.90;;;;;;;8.56;82.66;98713.16;5029653;28;20498;-55
2021/01/29 00:27:56;;;;;;;23.92;5.32;;;;;;;8.61;82.58;98716.75;5012164;28;20049;-49
2021/01/29 00:30:24;;;;;;;26.60;5.18;;;;;;;8.58;82.51;98719.09;5018089;28;20518;-51
2021/01/29 00:32:53;;;;;;;18.15;4.05;;;;;;;8.60;82.36;98724.25;5021311;28;20045;-49
2021/01/29 00:35:24;;;;;;;14.93;3.85;;;;;;;8.59;82.36;98714.38;5012268;28;20467;-48
2021/01/29 00:37:51;;;;;;;22.40;4.38;;;;;;;8.59;82.34;98722.66;5021375;28;20040;-52
2021/01/29 00:40:18;;;;;;;23.67;4.72;;;;;;;8.57;82.35;98708.44;5012456;28;20053;-49
2021/01/29 00:42:46;;;;;;;30.45;6.10;;;;;;;8.53;82.34;98710.38;5020921;28;20136;-49
2021/01/29 00:45:14;;;;;;;25.90;7.45;;;;;;;8.52;82.17;98719.84;5015444;28;20089;-50
2021/01/29 00:47:41;;;;;;;27.88;6.53;;;;;;;8.53;82.21;98707.63;5008712;28;20069;-49
2021/01/29 00:50:09;;;;;;;22.13;4.50;;;;;;;8.50;82.25;98705.63;4992679;28;20137;-50
2021/01/29 00:52:35;;;;;;;17.58;4.50;;;;;;;8.47;81.91;98703.66;5026192;28;20053;-48
2021/01/29 00:55:06;;;;;;;24.65;4.90;;;;;;;8.43;82.06;98697.28;5021141;28;20499;-52
2021/01/29 00:57:33;;;;;;;20.98;4.60;;;;;;;8.39;82.13;98699.25;5029899;28;20045;-51
2021/01/29 00:59:59;;;;;;;20.50;6.38;;;;;;;8.37;82.11;98696.03;5025845;28;20037;-51
2021/01/29 01:02:26;;;;;;;25.58;4.93;;;;;;;8.33;82.22;98693.28;5030669;28;20055;-53
2021/01/29 01:04:54;;;;;;;18.58;4.32;;;;;;;8.28;82.02;98687.31;5016626;28;20045;-50
2021/01/29 01:07:20;;;;;;;20.58;3.92;;;;;;;8.23;82.18;98684.88;5012673;28;20404;-50
2021/01/29 01:09:47;;;;;;;21.88;4.15;;;;;;;8.21;82.21;98688.00;5018256;28;20069;-50
2021/01/29 01:12:13;;;;;;;27.50;5.20;;;;;;;8.21;82.27;98676.16;5010677;28;20058;-52
2021/01/29 01:14:40;;;;;;;20.70;4.57;;;;;;;8.17;82.15;98676.16;5016808;28;20463;-50
2021/01/29 01:17:07;;;;;;;24.58;4.88;;;;;;;8.17;82.31;98680.88;5021298;28;20061;-48
2021/01/29 01:19:36;;;;;;;22.35;5.22;;;;;;;8.19;82.08;98686.78;5023960;28;20046;-50
2021/01/29 01:22:05;;;;;;;16.40;3.30;;;;;;;8.18;82.25;98677.72;5011918;28;20077;-48
2021/01/29 01:24:39;;;;;;;16.08;3.90;;;;;;;8.18;82.13;98671.44;5017440;28;20045;-53
2021/01/29 01:27:07;;;;;;;21.35;4.35;;;;;;;8.18;82.29;98668.69;5021167;28;20380;-57
2021/01/29 01:29:33;;;;;;;15.52;3.97;;;;;;;8.18;82.27;98676.94;5009430;28;20132;-53
2021/01/29 01:32:00;;;;;;;24.52;3.72;;;;;;;8.20;82.34;98674.59;5011879;28;20068;-52
2021/01/29 01:34:27;;;;;;;25.10;4.20;;;;;;;8.20;82.27;98674.59;5014581;28;20187;-51
2021/01/29 01:36:53;;;;;;;20.25;3.70;;;;;;;8.19;82.17;98668.28;5010239;28;20430;-52
2021/01/29 01:39:19;;;;;;;21.15;5.47;;;;;;;8.20;82.24;98674.59;5012539;28;20727;-48
2021/01/29 01:41:46;;;;;;;20.55;4.95;;;;;;;8.19;82.39;98678.53;5008843;28;20103;-49
2021/01/29 01:44:32;;;;;;;24.65;5.18;;;;;;;8.17;82.40;98678.09;5024794;28;20042;-47
2021/01/29 01:47:24;;;;;;;20.30;5.75;;;;;;;8.19;82.33;98681.28;5031874;28;20072;-51
2021/01/29 01:49:55;;;;;;;12.05;3.47;;;;;;;8.20;82.50;98669.09;4997572;28;20799;-49
2021/01/29 01:52:35;;;;;;;16.15;3.28;;;;;;;8.20;82.48;98671.84;5017545;28;20037;-49
2021/01/29 01:55:08;;;;;;;16.77;4.70;;;;;;;8.20;82.57;98669.09;5016807;28;20128;-50
2021/01/29 01:57:37;;;;;;;16.85;4.40;;;;;;;8.23;82.44;98671.09;5032251;28;20115;-49
2021/01/29 02:00:09;;;;;;;20.67;4.65;;;;;;;8.24;82.53;98661.63;5029367;28;20128;-49
2021/01/29 02:02:37;;;;;;;24.50;3.38;;;;;;;8.24;82.50;98658.88;4992950;28;20121;-48
2021/01/29 02:05:09;;;;;;;17.48;4.22;;;;;;;8.23;82.50;98649.03;4974851;28;20042;-48
2021/01/29 02:07:57;;;;;;;13.20;3.70;;;;;;;8.19;82.53;98650.94;4991286;28;20492;-50
2021/01/29 02:10:25;;;;;;;17.13;3.90;;;;;;;8.19;82.57;98650.94;5015254;28;20520;-48
2021/01/29 02:12:54;;;;;;;16.35;3.63;;;;;;;8.20;82.44;98655.31;5015253;28;20041;-49
2021/01/29 02:15:23;;;;;;;19.45;3.03;;;;;;;8.17;82.53;98645.03;5012503;28;20495;-50
2021/01/29 02:17:49;;;;;;;20.52;3.00;;;;;;;8.13;82.49;98642.25;5012342;28;20121;-49
2021/01/29 02:20:44;;;;;;;11.65;2.65;;;;;;;8.09;82.58;98646.94;5022346;28;20120;-49
2021/01/29 02:23:32;;;;;;;15.95;3.20;;;;;;;8.07;82.45;98645.75;5012370;28;20119;-51
2021/01/29 02:26:24;;;;;;;23.05;4.03;;;;;;;8.04;82.56;98649.25;5024231;28;20140;-50
2021/01/29 02:29:09;;;;;;;22.17;5.15;;;;;;;7.98;82.47;98638.56;5005842;28;20176;-48
2021/01/29 02:31:48;;;;;;;23.45;4.47;;;;;;;7.94;82.74;98639.72;5017091;28;20053;-51
2021/01/29 02:34:56;;;;;;;19.52;3.90;;;;;;;7.90;82.72;98636.91;5026140;28;20060;-50
2021/01/29 02:37:55;;;;;;;13.55;3.13;;;;;;;7.86;82.56;98636.06;5011147;28;20144;-53
2021/01/29 02:40:59;;;;;;;23.52;4.07;;;;;;;7.81;82.75;98641.94;4987638;28;20062;-51
2021/01/29 02:43:50;;;;;;;11.35;2.95;;;;;;;7.77;82.76;98638.34;4950899;29;20493;-50
2021/01/29 02:46:37;;;;;;;14.13;3.40;;;;;;;7.74;82.82;98641.88;5015520;28;20076;-48
2021/01/29 02:49:22;;;;;;;16.58;4.28;;;;;;;7.70;82.73;98641.03;5016571;28;20117;-48
2021/01/29 02:51:57;;;;;;;15.50;3.30;;;;;;;7.69;82.87;98638.66;5017511;28;20042;-47
2021/01/29 02:54:37;;;;;;;15.48;3.60;;;;;;;7.66;82.82;98640.19;5015409;28;20042;-51
2021/01/29 02:57:13;;;;;;;14.95;3.30;;;;;;;7.63;82.80;98635.44;5027055;28;20065;-48
2021/01/29 03:00:03;;;;;;;22.58;3.55;;;;;;;7.61;83.15;98634.22;5005766;28;20462;-49
2021/01/29 03:02:42;;;;;;;25.40;3.63;;;;;;;7.59;82.91;98629.13;5014484;28;20045;-53
2021/01/29 03:05:18;;;;;;;17.75;3.03;;;;;;;7.56;83.04;98629.06;5025498;28;20037;-53
2021/01/29 03:07:58;;;;;;;12.80;4.03;;;;;;;7.53;83.09;98636.13;4974810;28;20077;-48
2021/01/29 03:10:44;;;;;;;15.32;3.00;;;;;;;7.52;83.15;98636.50;5005066;28;20040;-49
2021/01/29 03:13:20;;;;;;;14.32;2.70;;;;;;;7.48;83.20;98638.41;5021902;28;20084;-48
2021/01/29 03:15:55;;;;;;;21.98;4.72;;;;;;;7.45;83.02;98636.41;5017796;28;20041;-49
2021/01/29 03:18:27;;;;;;;13.63;3.78;;;;;;;7.41;83.42;98641.09;5011509;28;20046;-48
2021/01/29 03:21:15;;;;;;;13.95;2.90;;;;;;;7.38;83.55;98650.91;5017946;28;20077;-53
2021/01/29 03:23:53;;;;;;;16.20;2.78;;;;;;;7.39;83.43;98646.94;5022298;28;20065;-51
2021/01/29 03:26:23;;;;;;;17.40;3.17;;;;;;;7.39;83.49;98646.94;5030147;28;20457;-54
2021/01/29 03:28:56;;;;;;;17.45;3.75;;;;;;;7.43;83.40;98647.00;5030931;28;20052;-50
2021/01/29 03:31:25;;;;;;;17.33;4.28;;;;;;;7.45;83.52;98641.91;5022668;28;20168;-50
2021/01/29 03:34:02;;;;;;;15.60;3.25;;;;;;;7.41;83.57;98639.13;5030246;28;20045;-49
2021/01/29 03:36:33;;;;;;;21.92;6.03;;;;;;;7.40;83.66;98640.28;5020555;28;20083;-51
2021/01/29 03:39:07;;;;;;;12.80;4.32;;;;;;;7.40;83.82;98648.56;5010371;28;20419;-49
2021/01/29 03:41:42;;;;;;;17.02;3.70;;;;;;;7.39;83.79;98641.44;4995673;28;20068;-48
2021/01/29 03:44:46;;;;;;;16.85;3.45;;;;;;;7.42;83.87;98650.91;5011887;28;20124;-49
2021/01/29 03:47:28;;;;;;;19.30;5.13;;;;;;;7.45;83.89;98639.97;5023475;28;20040;-50
2021/01/29 03:50:05;;;;;;;13.35;3.47;;;;;;;7.49;83.76;98646.31;5019133;28;20124;-48
2021/01/29 03:52:47;;;;;;;17.83;5.90;;;;;;;7.49;83.79;98651.81;5014416;28;20041;-48
2021/01/29 03:55:43;;;;;;;12.98;2.55;;;;;;;7.53;83.66;98658.16;5015553;28;20074;-54
2021/01/29 03:58:46;;;;;;;14.80;3.45;;;;;;;7.53;83.66;98658.16;5019230;28;20053;-49
2021/01/29 04:01:50;;;;;;;12.90;3.55;;;;;;;7.51;83.67;98652.22;5011926;28;20136;-51
2021/01/29 04:04:28;;;;;;;12.27;2.67;;;;;;;7.54;83.59;98667.22;5014858;28;20439;-47
2021/01/29 04:07:05;;;;;;;13.70;3.28;;;;;;;7.56;83.78;98668.41;5015022;28;20069;-49
2021/01/29 04:09:56;;;;;;;13.10;3.20;;;;;;;7.57;83.93;98667.22;5011846;28;20092;-49
2021/01/29 04:12:31;;;;;;;18.70;3.28;;;;;;;7.62;83.77;98677.94;5010813;28;20088;-53
2021/01/29 04:15:18;;;;;;;12.77;3.38;;;;;;;7.62;83.88;98675.19;5014633;28;20042;-50
2021/01/29 04:18:34;;;;;;;10.55;3.00;;;;;;;7.63;84.35;98682.25;5016238;28;20041;-47
2021/01/29 04:21:13;;;;;;;10.05;2.78;;;;;;;7.67;84.18;98683.09;5003718;28;20112;-52
2021/01/29 04:23:51;;;;;;;14.38;3.20;;;;;;;7.69;84.18;98690.97;5025676;28;20073;-48
2021/01/29 04:26:21;;;;;;;15.93;2.85;;;;;;;7.71;84.19;98692.19;5013758;28;20049;-51
2021/01/29 04:29:21;;;;;;;16.33;3.10;;;;;;;7.71;84.22;98691.38;5022043;28;20041;-49
2021/01/29 04:32:12;;;;;;;18.63;3.50;;;;;;;7.71;84.48;98697.69;5014988;28;20172;-50
2021/01/29 04:34:44;;;;;;;23.05;3.92;;;;;;;7.73;84.25;98697.34;5014034;28;20096;-49
2021/01/29 04:37:19;;;;;;;14.77;4.35;;;;;;;7.74;84.25;98696.94;5032040;28;20411;-50
2021/01/29 04:39:49;;;;;;;19.38;4.13;;;;;;;7.73;84.42;98706.38;5019436;28;20137;-54
2021/01/29 04:42:33;;;;;;;13.10;3.28;;;;;;;7.74;84.42;98715.44;5014869;28;20046;-49
2021/01/29 04:45:03;;;;;;;9.75;3.00;;;;;;;7.76;84.37;98722.16;5013773;28;20042;-49
2021/01/29 04:47:48;;;;;;;11.82;3.10;;;;;;;7.76;84.36;98729.63;5015034;28;20046;-50
2021/01/29 04:50:28;;;;;;;11.07;3.15;;;;;;;7.76;84.39;98730.41;5012833;28;20073;-53
2021/01/29 04:53:11;;;;;;;22.38;2.75;;;;;;;7.78;84.28;98733.56;5018352;28;20041;-50
2021/01/29 04:55:44;;;;;;;17.67;6.22;;;;;;;7.74;84.48;98741.03;4996278;28;20096;-51
2021/01/29 04:58:35;;;;;;;13.38;3.10;;;;;;;7.70;84.66;98745.69;5014943;28;20041;-48
2021/01/29 05:01:35;;;;;;;14.73;2.63;;;;;;;7.69;84.81;98744.09;5030008;28;20041;-49
2021/01/29 05:04:23;;;;;;;18.33;4.30;;;;;;;7.71;84.87;98754.72;5027288;28;20049;-51
2021/01/29 05:07:01;;;;;;;22.08;4.60;;;;;;;7.64;84.76;98754.66;5002216;28;20073;-51
2021/01/29 05:09:27;;;;;;;23.38;3.40;;;;;;;7.60;85.22;98749.09;5017284;28;20077;-48
2021/01/29 05:12:12;;;;;;;17.15;3.78;;;;;;;7.57;85.14;98755.34;5028118;28;20038;-48
2021/01/29 05:14:47;;;;;;;17.00;4.25;;;;;;;7.59;85.30;98764.03;5020493;28;20033;-53
2021/01/29 05:17:26;;;;;;;23.27;5.13;;;;;;;7.57;85.16;98758.09;5013046;28;20053;-48
2021/01/29 05:20:01;;;;;;;15.68;2.92;;;;;;;7.54;85.64;98769.09;5022358;28;20466;-48
2021/01/29 05:22:49;;;;;;;10.75;2.97;;;;;;;7.50;85.46;98780.03;5011435;28;20116;-49
2021/01/29 05:25:49;;;;;;;15.85;3.30;;;;;;;7.49;85.73;98777.66;5023233;28;20127;-50
2021/01/29 05:28:41;;;;;;;15.40;3.03;;;;;;;7.47;85.71;98782.72;5032350;28;20511;-50
2021/01/29 05:31:27;;;;;;;18.67;3.20;;;;;;;7.42;85.79;98783.84;5013319;28;20049;-49
2021/01/29 05:34:01;;;;;;;13.30;2.83;;;;;;;7.41;85.68;98787.00;5014201;28;20444;-48
2021/01/29 05:36:41;;;;;;;19.45;4.47;;;;;;;7.35;85.75;98784.56;5017553;28;20046;-50
2021/01/29 05:39:39;;;;;;;13.88;3.20;;;;;;;7.34;85.80;98795.94;5017459;28;20088;-50
2021/01/29 05:42:49;;;;;;;20.48;3.55;;;;;;;7.30;85.94;98804.16;5026430;28;20129;-49
2021/01/29 05:45:40;;;;;;;9.50;2.80;;;;;;;7.26;86.15;98817.06;4990179;28;20050;-49
2021/01/29 05:48:13;;;;;;;17.63;3.55;;;;;;;7.26;86.17;98825.31;4951934;29;20066;-49
2021/01/29 05:50:56;;;;;;;15.20;2.85;;;;;;;7.28;86.02;98825.72;4998170;28;20081;-49
2021/01/29 05:53:52;;;;;;;23.75;3.38;;;;;;;7.27;86.41;98837.91;5022803;28;20124;-48
2021/01/29 05:56:49;;;;;;;12.25;3.03;;;;;;;7.29;86.37;98837.53;4992550;28;20062;-49
2021/01/29 05:59:35;;;;;;;18.20;3.78;;;;;;;7.29;85.99;98829.28;4997273;28;20038;-48
2021/01/29 06:02:29;;;;;;;14.13;3.08;;;;;;;7.26;86.28;98824.50;5024341;28;20075;-50
2021/01/29 06:05:23;;;;;;;14.50;2.90;;;;;;;7.24;86.42;98826.84;4992797;28;20057;-51
2021/01/29 06:08:17;;;;;;;11.43;2.60;;;;;;;7.20;86.37;98826.78;5003709;28;20113;-48
2021/01/29 06:10:52;;;;;;;13.82;2.58;;;;;;;7.22;86.35;98842.94;5015660;28;20503;-51
2021/01/29 06:13:49;;;;;;;17.85;3.22;;;;;;;7.19;86.78;98847.22;5021726;28;20042;-50
2021/01/29 06:16:27;;;;;;;16.10;2.83;;;;;;;7.22;86.87;98851.19;5031485;28;20050;-50
2021/01/29 06:19:11;;;;;;;14.10;3.20;;;;;;;7.24;86.64;98859.88;5024271;28;20045;-48
2021/01/29 06:21:46;;;;;;;14.15;2.95;;;;;;;7.26;86.93;98874.06;5011092;28;20096;-49
2021/01/29 06:24:21;;;;;;;18.13;3.85;;;;;;;7.25;87.03;98862.25;5015542;28;20457;-51
2021/01/29 06:26:59;;;;;;;14.45;3.45;;;;;;;7.23;87.41;98874.78;5012264;28;20150;-50
2021/01/29 06:29:57;;;;;;;15.38;3.38;;;;;;;7.20;87.64;98881.81;5020022;28;20443;-52
2021/01/29 06:32:47;;;;;;;14.20;3.70;;;;;;;7.22;87.54;98892.47;5026421;28;20042;-49
2021/01/29 06:35:29;;;;;;;11.48;3.35;;;;;;;7.23;87.55;98880.28;5019726;28;20055;-49
2021/01/29 06:38:01;;;;;;;10.68;2.90;;;;;;;7.22;87.47;98889.72;5012062;28;20077;-48
2021/01/29 06:41:04;;;;;;;15.18;3.40;;;;;;;7.22;88.01;98901.53;5014084;28;20069;-49
2021/01/29 06:44:18;;;;;;;10.10;2.80;;;;;;;7.26;87.79;98899.63;5026129;28;20050;-49
2021/01/29 06:46:59;;;;;;;11.45;2.38;;;;;;;7.31;87.31;98904.00;5020172;28;20118;-50
2021/01/29 06:49:44;;;;;;;8.10;2.53;;;;;;;7.29;87.49;98903.59;5030737;28;20150;-52
2021/01/29 06:52:23;;;;;;;9.88;3.22;;;;;;;7.32;87.45;98911.13;5014148;28;20395;-50
2021/01/29 06:55:26;;;;;;;11.93;2.58;;;;;;;7.33;87.53;98907.22;5011572;28;20037;-50
2021/01/29 06:57:59;;;;;;;9.05;3.15;;;;;;;7.31;87.46;98906.75;5012030;28;20050;-51
2021/01/29 07:00:35;;;;;;;;;;;;;;;7.28;87.40;98918.53;5026834;28;20499;-49
2021/01/29 07:03:11;;;;;;;12.07;3.85;;;;;;;7.23;87.03;98922.38;5015173;28;19964;-53
2021/01/29 07:05:58;;;;;;;9.55;2.90;;;;;;;7.18;87.28;98927.38;5026775;28;20038;-51
2021/01/29 07:08:47;;;;;;;8.20;1.75;;;;;;;7.11;87.26;98927.28;5014379;28;20057;-49
2021/01/29 07:11:32;;;;;;;15.15;2.75;;;;;;;7.09;87.08;98921.34;4982214;28;20068;-52
2021/01/29 07:14:07;;;;;;;10.88;2.10;;;;;;;7.02;87.29;98923.94;5017940;28;20080;-52
2021/01/29 07:16:43;;;;;;;12.95;2.83;;;;;;;7.03;87.15;98931.06;5013031;28;20068;-51
2021/01/29 07:19:57;;;;;;;14.80;3.88;;;;;;;6.98;87.48;98929.41;5029259;28;20067;-49
2021/01/29 07:22:39;;;;;;;9.80;1.63;;;;;;;6.99;87.01;98935.72;4976934;28;20058;-49
2021/01/29 07:25:14;;;;;;;7.30;1.65;;;;;;;6.97;87.28;98927.81;5003642;28;20045;-53
2021/01/29 07:27:54;;;;;;;5.93;1.77;;;;;;;6.96;87.23;98919.94;5030124;28;20442;-50
2021/01/29 07:30:42;;;;;;;7.32;1.38;;;;;;;6.98;87.08;98928.59;5017202;28;20046;-49
2021/01/29 07:33:17;;;;;;;6.32;1.60;;;;;;;6.99;87.13;98935.72;5014612;28;20076;-48
2021/01/29 07:36:04;;;;;;;6.57;1.48;;;;;;;7.00;87.14;98943.59;5011651;28;20041;-51
2021/01/29 07:38:30;;;;;;;5.97;1.65;;;;;;;7.03;87.26;98953.06;4986513;28;20057;-49
2021/01/29 07:41:34;;;;;;;6.78;1.35;;;;;;;7.05;87.52;98959.78;5013630;28;20046;-50
2021/01/29 07:44:23;;;;;;;5.50;0.93;;;;;;;7.08;87.33;98961.81;5009990;28;20056;-50
2021/01/29 07:47:17;;;;;;;2.63;0.80;;;;;;;7.12;87.19;98964.66;4992034;28;20054;-50
2021/01/29 07:50:23;;;;;;;1.60;0.80;;;;;;;7.12;87.36;98962.66;5023449;28;20037;-48
2021/01/29 07:53:09;;;;;;;1.63;0.80;;;;;;;7.16;87.22;98971.78;5008310;28;20454;-50
2021/01/29 07:55:59;;;;;;;4.57;1.08;;;;;;;7.16;87.12;98971.00;5034000;28;20041;-50
2021/01/29 07:58:31;;;;;;;4.72;0.90;;;;;;;7.18;87.10;98987.94;5028802;28;20593;-49
2021/01/29 08:01:36;;;;;;;5.00;0.77;;;;;;;7.16;87.31;98991.06;5017740;28;20487;-49
2021/01/29 08:04:23;;;;;;;1.70;0.75;;;;;;;7.18;87.24;98990.69;5007870;28;20057;-48
2021/01/29 08:07:14;;;;;;;2.05;0.88;;;;;;;7.14;87.38;99004.41;5016553;28;20049;-49
2021/01/29 08:09:47;;;;;;;3.42;0.73;;;;;;;7.12;87.54;98998.44;5024357;28;20037;-48
2021/01/29 08:12:18;;;;;;;4.72;0.70;;;;;;;7.13;87.67;99004.75;5008704;28;20078;-49
2021/01/29 08:15:11;;;;;;;3.30;0.77;;;;;;;7.13;87.76;99007.50;5025625;28;20044;-49
2021/01/29 08:18:14;;;;;;;5.63;0.90;;;;;;;7.12;87.77;99005.91;5014597;28;20046;-48
2021/01/29 08:21:11;;;;;;;1.73;0.60;;;;;;;7.13;88.24;99004.75;5018406;28;20073;-47
2021/01/29 08:23:52;;;;;;;2.25;1.08;;;;;;;7.11;88.44;99009.81;5015730;28;20113;-49
2021/01/29 08:26:18;;;;;;;4.72;1.38;;;;;;;7.13;88.03;99007.50;5013314;28;20058;-49
2021/01/29 08:28:54;;;;;;;4.10;1.25;;;;;;;7.13;88.33;99015.75;5013778;28;20262;-50
2021/01/29 08:31:47;;;;;;;5.45;1.48;;;;;;;7.14;88.54;99022.84;5014925;28;20050;-49
2021/01/29 08:34:41;;;;;;;4.05;2.05;;;;;;;7.14;88.96;99018.16;5024464;28;20128;-48
2021/01/29 08:37:21;;;;;;;5.57;1.52;;;;;;;7.16;88.93;99020.53;5010543;28;20136;-48
2021/01/29 08:40:16;;;;;;;6.40;1.30;;;;;;;7.17;89.29;99033.13;5014121;28;20168;-49
2021/01/29 08:43:05;;;;;;;7.38;1.38;;;;;;;7.19;89.48;99033.56;5010871;28;20065;-48
2021/01/29 08:45:59;;;;;;;3.95;1.33;;;;;;;7.21;89.25;99042.25;5014078;28;20045;-50
2021/01/29 08:48:48;;;;;;;7.82;1.33;;;;;;;7.22;89.43;99043.84;5021526;28;20116;-52
2021/01/29 08:51:17;;;;;;;4.22;1.30;;;;;;;7.23;89.58;99057.22;5015872;28;20075;-50
2021/01/29 08:53:51;;;;;;;6.20;1.55;;;;;;;7.26;89.69;99052.97;5023790;28;20128;-52
2021/01/29 08:56:44;;;;;;;;;;;;;;;7.28;90.06;99047.91;5019533;28;20046;-50
2021/01/29 08:59:17;;;;;;;7.25;2.22;;;;;;;7.29;89.88;99036.53;4989928;28;20409;-48
2021/01/29 09:02:08;;;;;;;7.82;1.92;;;;;;;7.35;89.85;99046.09;5012677;28;20041;-49
2021/01/29 09:04:44;;;;;;;5.45;1.50;;;;;;;7.42;89.41;99041.84;5013199;28;20041;-50
2021/01/29 09:07:17;;;;;;;5.55;1.40;;;;;;;7.47;89.65;99066.31;5024137;28;20034;-50
2021/01/29 09:09:46;;;;;;;8.52;1.33;;;;;;;7.50;89.57;99065.59;4999020;28;20947;-52
2021/01/29 09:12:25;;;;;;;6.88;1.50;;;;;;;7.56;89.22;99053.94;5018944;28;20403;-50
2021/01/29 09:14:58;;;;;;;7.35;1.58;;;;;;;7.59;89.16;99075.22;4995861;28;20038;-50
2021/01/29 09:17:37;;;;;;;6.63;1.30;;;;;;;7.65;89.12;99078.47;5022764;28;20062;-51
2021/01/29 09:20:10;;;;;;;2.25;1.08;;;;;;;7.70;89.04;99065.22;5014442;28;20490;-52
2021/01/29 09:22:49;;;;;;;11.63;1.92;;;;;;;7.74;88.94;99082.56;5013826;28;20357;-52
2021/01/29 09:25:19;;;;;;;11.40;1.75;;;;;;;7.77;88.86;99087.38;5013054;28;20046;-50
2021/01/29 09:27:51;;;;;;;8.27;1.80;;;;;;;7.83;88.70;99085.09;5013536;28;20056;-49
2021/01/29 09:30:48;;;;;;;10.40;1.90;;;;;;;7.88;88.54;99093.84;5016044;28;20128;-50
2021/01/29 09:33:24;;;;;;;1.80;1.15;;;;;;;7.91;88.53;99095.88;5025365;28;20117;-55
2021/01/29 09:36:04;;;;;;;11.45;1.67;;;;;;;7.96;88.35;99098.34;5004472;28;20041;-51
2021/01/29 09:38:43;;;;;;;10.85;1.65;;;;;;;7.96;88.29;99109.34;5018260;28;20050;-51
2021/01/29 09:41:24;;;;;;;8.20;2.10;;;;;;;7.99;88.24;99116.09;4993348;28;20049;-50
2021/01/29 09:43:56;;;;;;;7.25;1.27;;;;;;;8.02;88.36;99115.34;5014509;28;20388;-49
2021/01/29 09:46:32;;;;;;;5.50;1.30;;;;;;;7.99;88.46;99127.88;5018224;28;20052;-50
2021/01/29 09:49:04;;;;;;;7.25;1.63;;;;;;;7.99;88.64;99138.91;5008652;28;20052;-53
2021/01/29 09:51:39;;;;;;;5.82;0.98;;;;;;;8.01;88.53;99137.75;4997588;28;20050;-49
2021/01/29 09:54:20;;;;;;;7.50;1.60;;;;;;;8.05;88.32;99147.66;5011784;28;20052;-50
2021/01/29 09:56:53;;;;;;;8.68;1.85;;;;;;;8.09;88.32;99150.50;4992982;28;20092;-51
2021/01/29 09:59:34;;;;;;;7.40;1.30;;;;;;;8.13;88.31;99168.69;5012972;28;20042;-50
2021/01/29 10:02:07;;;;;;;9.27;2.40;;;;;;;8.18;88.06;99165.63;4995939;28;20038;-50
2021/01/29 10:05:02;;;;;;;11.77;1.40;;;;;;;8.21;87.63;99167.63;5011626;28;20058;-53
2021/01/29 10:07:32;;;;;;;9.70;1.50;;;;;;;8.25;87.79;99179.53;5012579;28;20069;-48
2021/01/29 10:10:24;;;;;;;7.80;2.33;;;;;;;8.27;87.30;99181.94;5023411;28;20077;-50
2021/01/29 10:13:02;;;;;;;12.35;1.85;;;;;;;8.29;87.40;99179.63;5010559;28;20045;-52
2021/01/29 10:15:35;;;;;;;9.13;1.95;;;;;;;8.31;87.27;99188.34;5013260;28;20048;-52
2021/01/29 10:18:22;;;;;;;5.05;0.80;;;;;;;8.31;86.97;99204.88;5022613;28;20045;-50
2021/01/29 10:21:01;;;;;;;7.40;1.38;;;;;;;8.32;87.20;99207.25;5019542;28;20491;-50
2021/01/29 10:23:50;;;;;;;13.30;1.73;;;;;;;8.34;87.22;99220.69;5017034;28;20042;-51
2021/01/29 10:26:34;;;;;;;14.93;3.53;;;;;;;8.35;87.41;99230.53;4992199;28;20495;-50
2021/01/29 10:29:32;;;;;;;12.38;1.40;;;;;;;8.32;87.68;99232.06;5020146;28;20045;-53
2021/01/29 10:32:20;;;;;;;12.02;1.75;;;;;;;8.31;87.90;99241.50;4992012;28;20088;-51
2021/01/29 10:35:16;;;;;;;6.40;1.20;;;;;;;8.31;88.20;99235.97;4981077;28;20042;-53
2021/01/29 10:37:55;;;;;;;10.13;1.70;;;;;;;8.27;88.35;99242.59;4989438;28;20132;-49
2021/01/29 10:40:35;;;;;;;8.30;2.15;;;;;;;8.27;88.43;99246.16;4992677;28;20050;-56
2021/01/29 10:43:16;;;;;;;10.93;1.80;;;;;;;8.30;88.60;99258.41;4998478;28;20100;-55
2021/01/29 10:45:55;;;;;;;7.45;2.33;;;;;;;8.29;88.61;99273.34;4999278;28;20030;-51
2021/01/29 10:48:27;;;;;;;6.78;1.42;;;;;;;8.26;88.71;99269.34;4989651;28;20069;-51
2021/01/29 10:51:00;;;;;;;8.88;1.83;;;;;;;8.20;89.08;99270.03;4994923;28;20049;-51
2021/01/29 10:53:31;;;;;;;8.18;1.42;;;;;;;8.18;89.18;99267.63;4986664;28;20046;-50
2021/01/29 10:56:02;;;;;;;5.22;1.10;;;;;;;8.20;88.97;99278.28;4993852;28;20385;-54
2021/01/29 10:58:38;;;;;;;13.73;3.67;;;;;;;8.19;89.54;99276.69;4996607;28;20065;-57
2021/01/29 11:01:20;;;;;;;11.13;1.55;;;;;;;8.20;89.04;99286.56;5003103;28;20057;-48
2021/01/29 11:03:49;;;;;;;19.50;4.30;;;;;;;8.21;89.47;99297.22;4979991;28;20058;-51
2021/01/29 11:06:21;;;;;;;17.83;7.20;;;;;;;8.21;89.39;99302.72;4991153;28;20042;-49
2021/01/29 11:08:53;;;;;;;18.70;9.10;;;;;;;8.27;89.65;99314.28;4997490;28;20455;-53
2021/01/29 11:11:32;;;;;;;26.90;13.68;;;;;;;8.29;89.51;99323.78;5001330;28;20089;-53
2021/01/29 11:14:35;;;;;;;10.82;2.40;;;;;;;8.27;89.44;99328.88;5007247;28;20057;-52
2021/01/29 11:17:14;;;;;;;13.70;1.63;;;;;;;8.25;89.44;99333.13;4990027;28;20073;-52
2021/01/29 11:19:44;;;;;;;12.88;3.67;;;;;;;8.27;89.38;99347.38;4999179;28;20046;-53
2021/01/29 11:22:18;;;;;;;5.97;2.25;;;;;;;8.27;89.33;99355.66;4990890;28;20050;-53
2021/01/29 11:24:54;;;;;;;7.30;2.13;;;;;;;8.25;89.47;99366.22;4990772;28;20786;-52
2021/01/29 11:27:38;;;;;;;6.45;2.13;;;;;;;8.27;89.33;99363.91;4998882;28;20050;-49
2021/01/29 11:30:28;;;;;;;9.35;2.00;;;;;;;8.29;89.56;99373.41;4995005;28;20066;-50
2021/01/29 11:33:04;;;;;;;8.57;1.65;;;;;;;8.32;89.39;99394.75;5006094;28;20129;-50
2021/01/29 11:35:43;;;;;;;5.18;1.27;;;;;;;8.37;89.72;99393.66;4997741;28;20050;-50
2021/01/29 11:38:14;;;;;;;3.97;1.35;;;;;;;8.43;89.61;99389.47;5011372;28;20078;-58
2021/01/29 11:41:00;;;;;;;6.72;2.17;;;;;;;8.44;89.50;99393.81;5006685;28;20049;-52
2021/01/29 11:43:32;;;;;;;7.10;2.08;;;;;;;8.46;89.45;99397.00;5030498;28;20095;-48
2021/01/29 11:46:25;;;;;;;13.25;2.47;;;;;;;8.41;89.63;99394.53;5029885;28;20061;-47
2021/01/29 11:49:02;;;;;;;12.43;3.70;;;;;;;8.42;89.71;99402.44;5021439;28;20203;-51
2021/01/29 11:51:32;;;;;;;16.17;5.93;;;;;;;8.43;89.52;99401.28;5022351;28;20103;-48
2021/01/29 11:54:01;;;;;;;6.80;2.90;;;;;;;8.45;89.57;99403.69;5011869;28;20505;-53
2021/01/29 11:56:46;;;;;;;7.80;1.67;;;;;;;8.46;89.73;99405.28;5012706;28;20583;-52
2021/01/29 11:59:37;;;;;;;4.25;1.52;;;;;;;8.49;89.65;99416.41;5014770;28;20484;-50
2021/01/29 12:02:23;;;;;;;9.75;1.70;;;;;;;8.54;89.52;99418.06;5010840;28;20042;-52
2021/01/29 12:05:15;;;;;;;7.60;2.00;;;;;;;8.52;89.37;99415.66;5011529;28;20042;-52
2021/01/29 12:07:52;;;;;;;10.45;4.70;;;;;;;8.56;89.31;99427.56;5011202;28;20388;-53
2021/01/29 12:10:28;;;;;;;14.55;2.20;;;;;;;8.62;89.21;99428.06;5012227;28;20046;-52
2021/01/29 12:13:27;;;;;;;15.55;4.18;;;;;;;8.70;89.11;99431.75;5016581;28;20597;-52
2021/01/29 12:15:59;;;;;;;21.80;5.82;;;;;;;8.77;88.96;99431.88;5027801;28;20478;-54
2021/01/29 12:18:30;;;;;;;8.02;2.63;;;;;;;8.82;89.33;99432.41;4997407;28;20041;-51
2021/01/29 12:21:15;;;;;;;7.90;2.95;;;;;;;8.88;89.03;99439.22;5010671;28;20042;-50
2021/01/29 12:24:16;;;;;;;8.35;3.22;;;;;;;8.87;88.70;99448.66;5005734;28;20048;-56
2021/01/29 12:26:57;;;;;;;9.90;2.28;;;;;;;8.86;88.68;99441.56;5008558;28;20037;-50
2021/01/29 12:29:31;;;;;;;11.43;3.38;;;;;;;8.81;88.41;99444.63;5029638;28;20049;-52
2021/01/29 12:32:21;;;;;;;13.70;5.85;;;;;;;8.80;88.43;99445.78;5012923;28;20077;-52
2021/01/29 12:35:09;;;;;;;13.18;2.58;;;;;;;8.81;88.62;99449.34;5003115;28;20110;-53
2021/01/29 12:37:57;;;;;;;35.42;12.63;;;;;;;8.80;88.27;99448.53;5016135;28;20046;-54